Gran Canaria > ESTACION METEOROLÓGICA Acusa - Artenara

DATOS ACTUALES Online

Ultima actulizacion 22 minutos

18.5 ºC

Temperatura

90

Humedad (%)

906.66

Presión (mb)

0

Precipitación (mm)

14.4 NO

Viento (Km/h)

DATOS DIARIOS

Temperatura últimas 24 horas (ºC)

Humedad últimas 24 horas (%)

Presión atmosférica últimas 24 horas (mb)

Precipitaciones últimas 23 horas (mm)

Viento últimas 24 horas (Km/h)

Hora Temperatura (°C) ºC Precipitación (mm) mm Presión (mb) mb Humedad (%) % Viento (Km/h) km/h
25 - 00:00 17.5 0 909 83 10.4 NO
25 - 01:00 17.6 0 909 87 4.5 NO
25 - 02:00 18.5 0 908 80 5.3 NO
25 - 03:00 18.3 0 908 84 6.1 O
25 - 04:00 18.8 0 908 67 7.7 NO
25 - 05:00 18.4 0.2 907 80 10.2 NO
25 - 06:00 19.4 0.2 907 79 3.9 NW
25 - 07:00 18.4 0.6 908 84 3 SO
25 - 08:00 17.9 2.2 908 89 6.6 O
25 - 09:00 18.3 3.7 909 91 8.1 NO
25 - 10:00 18.7 4.4 909 89 19.3 NO
25 - 11:00 19.4 4.9 909 89 7.2 N
25 - 12:00 19.9 5.5 909 90 4 N
25 - 13:00 19.7 6 909 92 6.4 NW
25 - 14:00 19.2 7.7 908 91 7 NO
25 - 15:00 19.1 9.6 908 92 3.8 NO
25 - 16:00 18.9 11 907 91 9.3 NO
25 - 17:00 19.9 11.7 907 85 3.9 N
25 - 18:00 19.7 12.7 907 87 4.7 NO
25 - 19:00 18.7 15 907 91 4.5 NO
25 - 20:00 18.5 16.5 907 92 3.1 S
25 - 21:00 18.5 16.6 907 92 7.8 NO
25 - 22:00 18.3 16.6 907 91 9.3 NO
25 - 23:00 18.5 0 907 90 14.4 NO
26 - 00:00
Apalmet utiliza cookies propias y de terceros para mejorar la usabilidad y la experiencia web. Política de cookies.